CheckWX is a tool to help pilots better visualize weather data.  It is not intended as a substitute for an official pre-flight weather briefing.

07:41:49 UTC

LSZC TAF
Buochs Airport
Buochs, Switzerland
TAF LSZC 190525Z 1906/1915 VRB03KT CAVOK BECMG 1908/1910 9999 FEW060 PROB40 TEMPO 1912/1915 SHRA SCT050TCU PROB30 TEMPO 1913/1915 24015G25KT 4500 TSRA SCT050CB

Jun-19@
06:00 UTC

Jun-19 @ 06:00 UTC

Jun-19@
08:00 UTC

Jun-19 @ 08:00 UTC

TAF LSZC 190525Z 1906/1915 VRB03KT CAVOK
Wind
  • Variable at 3 KTS
Conditions
No significant weather
Cloud Levels
  • No significant clouds

Jun-19@
08:00 UTC

Jun-19 @ 08:00 UTC

Jun-19@
15:00 UTC

Jun-19 @ 15:00 UTC

BECMG 1908/1910 9999 FEW060

Becoming

Becoming Conditions expected by Wed, Jun 19, 2019 @ 10:00 UTC

Wind
  • Variable at 3 KTS
Conditions
No significant weather
Cloud Levels
  • Few at 6,000' AGL

Jun-19@
12:00 UTC

Jun-19 @ 12:00 UTC

Jun-19@
15:00 UTC

Jun-19 @ 15:00 UTC

PROB40 TEMPO 1912/1915 SHRA SCT050TCU

Temporary - 40% Likelihood

Temporary - 40% Likelihood during this time.

Conditions
Rain
Cloud Levels
  • Scattered at 5,000' AGL

Jun-19@
13:00 UTC

Jun-19 @ 13:00 UTC

Jun-19@
15:00 UTC

Jun-19 @ 15:00 UTC

PROB30 TEMPO 1913/1915 24015G25KT 4500 TSRA SCT050CB

Temporary - 30% Likelihood

Temporary - 30% Likelihood during this time.

Wind
  • 240° at 15 KTS
  • {Gusting to 25 KTS
Conditions
Thunderstorm, Rain
Cloud Levels
  • Scattered at 5,000' AGL